createdAt,value
2022-08-20T00:01:08.816Z,18.90
2022-08-20T00:03:39.179Z,18.74
2022-08-20T00:06:09.967Z,18.58
2022-08-20T00:08:38.585Z,18.63
2022-08-20T00:11:07.310Z,18.46
2022-08-20T00:13:44.911Z,18.70
2022-08-20T00:16:13.118Z,18.73
2022-08-20T00:18:41.133Z,18.79
2022-08-20T00:21:10.533Z,18.59
2022-08-20T00:23:38.805Z,18.70
2022-08-20T00:26:06.502Z,18.81
2022-08-20T00:28:33.120Z,18.83
2022-08-20T00:30:59.900Z,18.98
2022-08-20T00:33:26.312Z,19.00
2022-08-20T00:35:56.269Z,19.13
2022-08-20T00:38:24.646Z,19.12
2022-08-20T00:40:54.801Z,19.12
2022-08-20T00:43:43.342Z,19.26
2022-08-20T00:46:17.709Z,19.45
2022-08-20T00:48:50.196Z,19.49
2022-08-20T00:51:32.338Z,19.61
2022-08-20T00:54:06.833Z,19.40
2022-08-20T00:56:34.022Z,19.56
2022-08-20T00:59:01.881Z,19.40
2022-08-20T01:01:28.723Z,19.20
2022-08-20T01:03:56.548Z,19.39
2022-08-20T01:06:25.127Z,19.66
2022-08-20T01:08:52.149Z,19.59
2022-08-20T01:11:22.459Z,19.68
2022-08-20T01:13:49.494Z,19.57
2022-08-20T01:16:26.556Z,19.65
2022-08-20T01:18:57.598Z,19.78
2022-08-20T01:21:28.300Z,19.68
2022-08-20T01:24:17.031Z,19.87
2022-08-20T01:26:46.890Z,19.83
2022-08-20T01:29:19.070Z,19.86
2022-08-20T01:31:45.837Z,19.73
2022-08-20T01:34:15.157Z,19.69
2022-08-20T01:36:46.851Z,19.84
2022-08-20T01:39:17.471Z,19.75
2022-08-20T01:42:18.135Z,19.73
2022-08-20T01:44:48.397Z,19.63
2022-08-20T01:47:23.792Z,19.84
2022-08-20T01:49:54.826Z,19.87
2022-08-20T01:52:33.387Z,20.15
2022-08-20T01:55:00.050Z,20.29
2022-08-20T01:57:26.991Z,20.05
2022-08-20T01:59:54.081Z,19.94
2022-08-20T02:02:20.684Z,19.99
2022-08-20T02:04:47.545Z,20.13
2022-08-20T02:07:18.531Z,19.88
2022-08-20T02:09:46.321Z,19.95
2022-08-20T02:12:14.308Z,20.19
2022-08-20T02:14:47.149Z,19.93
2022-08-20T02:17:14.553Z,20.04
2022-08-20T02:19:45.566Z,20.11
2022-08-20T02:22:55.666Z,19.84
2022-08-20T02:25:26.322Z,20.11
2022-08-20T02:27:55.009Z,19.77
2022-08-20T02:30:33.156Z,19.89
2022-08-20T02:33:02.680Z,19.95
2022-08-20T02:35:31.709Z,19.91
2022-08-20T02:38:00.596Z,19.98
2022-08-20T02:40:31.049Z,19.93
2022-08-20T02:42:59.767Z,19.84
2022-08-20T02:45:26.567Z,19.31
2022-08-20T02:47:54.006Z,19.25
2022-08-20T02:50:23.872Z,19.52
2022-08-20T02:52:51.765Z,19.56
2022-08-20T02:55:28.234Z,19.59
2022-08-20T02:57:59.931Z,19.71
2022-08-20T03:00:32.297Z,19.94
2022-08-20T03:03:06.988Z,19.92
2022-08-20T03:05:33.835Z,19.88
2022-08-20T03:08:00.357Z,20.02
2022-08-20T03:10:30.570Z,19.99
2022-08-20T03:12:57.039Z,20.13
2022-08-20T03:15:23.842Z,20.11
2022-08-20T03:17:50.389Z,20.05
2022-08-20T03:20:17.305Z,19.97
2022-08-20T03:22:49.302Z,19.99
2022-08-20T03:25:16.596Z,20.02
2022-08-20T03:27:43.573Z,20.06
2022-08-20T03:30:14.038Z,20.07
2022-08-20T03:32:40.746Z,19.92
2022-08-20T03:35:10.893Z,19.81
2022-08-20T03:37:37.850Z,19.77
2022-08-20T03:40:12.129Z,20.03
2022-08-20T03:42:39.886Z,20.08
2022-08-20T03:45:08.203Z,20.10
2022-08-20T03:47:34.777Z,20.21
2022-08-20T03:50:06.067Z,20.25
2022-08-20T03:52:32.547Z,20.24
2022-08-20T03:54:58.972Z,20.28
2022-08-20T03:57:25.541Z,20.24
2022-08-20T03:59:51.977Z,20.12
2022-08-20T04:02:25.088Z,20.20
2022-08-20T04:04:51.807Z,20.28
2022-08-20T04:07:25.507Z,20.34
2022-08-20T04:09:53.013Z,20.24
2022-08-20T04:12:19.536Z,20.13
2022-08-20T04:14:46.028Z,19.90
2022-08-20T04:17:14.093Z,19.63
2022-08-20T04:19:41.292Z,19.82
2022-08-20T04:22:08.041Z,19.92
2022-08-20T04:24:35.541Z,20.01
2022-08-20T04:27:05.288Z,19.77
2022-08-20T04:29:34.892Z,19.69
2022-08-20T04:32:05.799Z,19.77
2022-08-20T04:34:33.090Z,19.88
2022-08-20T04:36:59.562Z,19.74
2022-08-20T04:39:26.760Z,19.77
2022-08-20T04:41:53.203Z,19.71
2022-08-20T04:44:21.702Z,19.54
2022-08-20T04:46:48.839Z,19.48
2022-08-20T04:49:15.304Z,19.36
2022-08-20T04:51:41.899Z,19.21
2022-08-20T04:54:08.444Z,19.25
2022-08-20T04:56:39.597Z,19.43
2022-08-20T04:59:07.480Z,19.31
2022-08-20T05:01:34.560Z,19.49
2022-08-20T05:04:01.534Z,19.59
2022-08-20T05:06:31.590Z,19.65
2022-08-20T05:09:00.625Z,19.81
2022-08-20T05:11:36.156Z,19.83
2022-08-20T05:14:08.532Z,19.82
2022-08-20T05:16:38.050Z,19.85
2022-08-20T05:19:06.567Z,19.86
2022-08-20T05:21:33.005Z,19.94
2022-08-20T05:23:59.550Z,19.91
2022-08-20T05:26:26.433Z,19.93
2022-08-20T05:28:58.227Z,19.89
2022-08-20T05:31:31.648Z,19.97
2022-08-20T05:34:12.079Z,19.84
2022-08-20T05:36:49.992Z,19.26
2022-08-20T05:39:19.087Z,19.39
2022-08-20T05:41:45.583Z,19.45
2022-08-20T05:44:15.450Z,19.79
2022-08-20T05:46:44.513Z,19.88
2022-08-20T05:49:13.802Z,19.80
2022-08-20T05:51:40.631Z,20.03
2022-08-20T05:54:07.457Z,20.23
2022-08-20T05:56:34.877Z,20.26
2022-08-20T05:59:04.741Z,20.29
2022-08-20T06:01:32.619Z,20.28
2022-08-20T06:04:18.018Z,19.89
2022-08-20T06:06:46.892Z,20.09
2022-08-20T06:09:16.159Z,20.34
2022-08-20T06:11:42.711Z,20.36
2022-08-20T06:14:09.275Z,20.28
2022-08-20T06:16:37.384Z,20.30
2022-08-20T06:19:05.011Z,20.78
2022-08-20T06:21:32.159Z,22.42
2022-08-20T06:24:01.191Z,24.18
2022-08-20T06:26:30.391Z,25.89
2022-08-20T06:29:00.841Z,26.50
2022-08-20T06:31:27.772Z,26.78
2022-08-20T06:33:54.512Z,26.06
2022-08-20T06:36:21.463Z,24.92
2022-08-20T06:38:48.057Z,24.32
2022-08-20T06:41:14.541Z,23.74
2022-08-20T06:43:41.117Z,23.26
2022-08-20T06:46:08.174Z,23.09
2022-08-20T06:48:34.612Z,22.50
2022-08-20T06:51:01.512Z,23.00
2022-08-20T06:53:28.953Z,23.81
2022-08-20T06:55:58.860Z,24.18
2022-08-20T06:58:37.803Z,23.70
2022-08-20T07:01:10.786Z,23.49
2022-08-20T07:03:55.877Z,23.25
2022-08-20T07:06:25.367Z,23.11
2022-08-20T07:08:52.450Z,22.94
2022-08-20T07:11:26.324Z,23.00
2022-08-20T07:13:55.780Z,24.95
2022-08-20T07:16:22.267Z,27.45
2022-08-20T07:18:48.729Z,29.24
2022-08-20T07:21:17.408Z,30.67
2022-08-20T07:23:43.977Z,31.76
2022-08-20T07:26:10.738Z,31.50
2022-08-20T07:28:37.155Z,30.56
2022-08-20T07:31:22.206Z,29.72
2022-08-20T07:33:50.373Z,28.81
2022-08-20T07:36:18.085Z,27.69
2022-08-20T07:38:52.549Z,27.07
2022-08-20T07:41:19.944Z,27.16
2022-08-20T07:43:47.718Z,27.75
2022-08-20T07:46:20.585Z,27.23
2022-08-20T07:48:49.948Z,27.16
2022-08-20T07:51:19.684Z,26.99
2022-08-20T07:53:47.278Z,26.72
2022-08-20T07:56:19.409Z,26.66
2022-08-20T07:58:50.023Z,26.33
2022-08-20T08:01:26.094Z,26.33
2022-08-20T08:03:52.977Z,26.31
2022-08-20T08:06:29.569Z,26.34
2022-08-20T08:09:09.691Z,26.10
2022-08-20T08:11:39.362Z,26.01
2022-08-20T08:14:08.638Z,25.59
2022-08-20T08:16:36.647Z,25.82
2022-08-20T08:19:07.435Z,25.68
2022-08-20T08:21:34.050Z,25.55
2022-08-20T08:24:00.616Z,25.24
2022-08-20T08:26:28.948Z,25.45
2022-08-20T08:28:55.956Z,25.02
2022-08-20T08:31:22.444Z,24.85
2022-08-20T08:33:48.951Z,25.35
2022-08-20T08:36:16.887Z,25.68
2022-08-20T08:38:45.332Z,25.73
2022-08-20T08:41:20.353Z,25.59
2022-08-20T08:43:53.084Z,25.27
2022-08-20T08:46:25.390Z,24.90
2022-08-20T08:48:54.926Z,24.24
2022-08-20T08:51:30.103Z,23.94
2022-08-20T08:53:57.613Z,23.62
2022-08-20T08:56:27.195Z,23.28
2022-08-20T08:58:55.586Z,22.97
2022-08-20T09:01:54.244Z,22.60
2022-08-20T09:04:12.801Z,22.47
2022-08-20T09:06:40.433Z,22.12
2022-08-20T09:09:21.491Z,21.79
2022-08-20T09:11:53.182Z,21.54
2022-08-20T09:14:20.732Z,21.82
2022-08-20T09:16:52.668Z,21.52
2022-08-20T09:19:20.768Z,21.49
2022-08-20T09:21:47.257Z,21.60
2022-08-20T09:24:13.691Z,21.73
2022-08-20T09:26:40.147Z,21.82
2022-08-20T09:29:06.763Z,22.10
2022-08-20T09:31:33.586Z,22.50
2022-08-20T09:34:00.176Z,23.06
2022-08-20T09:36:31.585Z,23.70
2022-08-20T09:38:59.761Z,24.00
2022-08-20T09:41:26.226Z,24.31
2022-08-20T09:43:52.784Z,24.76
2022-08-20T09:46:19.309Z,25.29
2022-08-20T09:48:53.421Z,26.39
2022-08-20T09:51:19.961Z,27.61
2022-08-20T09:53:46.860Z,27.30
2022-08-20T09:56:13.685Z,27.70
2022-08-20T09:58:50.791Z,28.11
2022-08-20T10:01:20.359Z,27.75
2022-08-20T10:03:49.170Z,27.76
2022-08-20T10:06:17.861Z,28.13
2022-08-20T10:08:44.497Z,28.47
2022-08-20T10:11:11.758Z,28.70
2022-08-20T10:13:38.240Z,29.31
2022-08-20T10:16:05.218Z,29.84
2022-08-20T10:18:31.754Z,30.09
2022-08-20T10:20:58.198Z,30.89
2022-08-20T10:23:24.701Z,31.78
2022-08-20T10:25:51.188Z,32.94
2022-08-20T10:28:17.766Z,33.96
2022-08-20T10:30:45.149Z,34.10
2022-08-20T10:33:11.631Z,34.39
2022-08-20T10:35:38.110Z,34.60
2022-08-20T10:38:04.684Z,34.72
2022-08-20T10:40:31.275Z,34.63
2022-08-20T10:42:57.734Z,34.91
2022-08-20T10:45:25.742Z,34.77
2022-08-20T10:47:52.412Z,35.67
2022-08-20T10:50:20.043Z,35.79
2022-08-20T10:52:47.257Z,35.35
2022-08-20T10:55:14.292Z,35.91
2022-08-20T10:57:43.377Z,35.57
2022-08-20T11:00:13.547Z,34.26
2022-08-20T11:02:40.032Z,34.41
2022-08-20T11:05:07.998Z,33.10
2022-08-20T11:07:50.561Z,33.36
2022-08-20T11:10:22.943Z,34.73
2022-08-20T11:12:49.424Z,35.26
2022-08-20T11:15:15.934Z,35.42
2022-08-20T11:17:43.716Z,35.87
2022-08-20T11:20:12.786Z,34.26
2022-08-20T11:22:39.250Z,34.59
2022-08-20T11:25:07.052Z,35.06
2022-08-20T11:27:36.808Z,35.59
2022-08-20T11:30:08.804Z,36.23
2022-08-20T11:32:35.633Z,34.44
2022-08-20T11:35:09.980Z,32.35
2022-08-20T11:37:45.529Z,31.32
2022-08-20T11:40:12.786Z,30.98
2022-08-20T11:42:58.398Z,32.36
2022-08-20T11:45:26.136Z,31.92
2022-08-20T11:47:52.638Z,30.94
2022-08-20T11:50:21.199Z,30.24
2022-08-20T11:52:47.812Z,28.07
2022-08-20T11:55:16.963Z,30.33
2022-08-20T11:57:47.097Z,31.83
2022-08-20T12:00:19.151Z,31.51
2022-08-20T12:02:46.151Z,31.90
2022-08-20T12:05:12.813Z,30.81
2022-08-20T12:07:39.571Z,30.98
2022-08-20T12:10:07.421Z,31.26
2022-08-20T12:12:33.990Z,31.71
2022-08-20T12:15:00.491Z,31.90
2022-08-20T12:17:29.448Z,30.95
2022-08-20T12:19:58.547Z,31.71
2022-08-20T12:22:25.655Z,31.61
2022-08-20T12:24:56.002Z,31.92
2022-08-20T12:27:30.017Z,31.17
2022-08-20T12:30:01.587Z,32.28
2022-08-20T12:32:32.214Z,33.16
2022-08-20T12:34:59.129Z,33.65
2022-08-20T12:37:28.909Z,33.94
2022-08-20T12:39:58.942Z,34.48
2022-08-20T12:42:26.657Z,34.84
2022-08-20T12:44:53.189Z,34.48
2022-08-20T12:47:25.776Z,35.38
2022-08-20T12:50:01.285Z,35.98
2022-08-20T12:52:29.769Z,36.20
2022-08-20T12:54:57.051Z,35.32
2022-08-20T12:57:36.043Z,36.10
2022-08-20T13:00:13.569Z,35.77
2022-08-20T13:02:41.236Z,36.63
2022-08-20T13:05:12.561Z,37.15
2022-08-20T13:07:40.404Z,36.69
2022-08-20T13:10:08.798Z,37.28
2022-08-20T13:12:35.563Z,37.73
2022-08-20T13:15:02.179Z,37.96
2022-08-20T13:17:38.077Z,37.78
2022-08-20T13:20:09.082Z,37.71
2022-08-20T13:22:35.636Z,37.82
2022-08-20T13:25:02.167Z,38.31
2022-08-20T13:27:28.621Z,37.34
2022-08-20T13:29:58.794Z,38.04
2022-08-20T13:32:26.059Z,38.25
2022-08-20T13:34:52.559Z,39.66
2022-08-20T13:37:26.674Z,39.79
2022-08-20T13:39:54.128Z,38.69
2022-08-20T13:42:21.302Z,39.09
2022-08-20T13:44:48.046Z,38.90
2022-08-20T13:47:15.752Z,38.02
2022-08-20T13:49:42.356Z,38.48
2022-08-20T13:52:08.864Z,38.18
2022-08-20T13:54:35.427Z,37.81
2022-08-20T13:57:10.475Z,38.09
2022-08-20T13:59:43.096Z,37.53
2022-08-20T14:02:11.181Z,35.44
2022-08-20T14:04:38.776Z,37.07
2022-08-20T14:07:13.877Z,37.27
2022-08-20T14:09:42.164Z,36.71
2022-08-20T14:12:09.895Z,37.06
2022-08-20T14:14:36.762Z,37.01
2022-08-20T14:17:19.110Z,36.85
2022-08-20T14:19:47.903Z,34.69
2022-08-20T14:22:17.327Z,35.75
2022-08-20T14:24:45.525Z,36.25
2022-08-20T14:27:14.029Z,36.73
2022-08-20T14:29:42.651Z,37.11
2022-08-20T14:32:10.383Z,34.53
2022-08-20T14:34:37.341Z,35.84
2022-08-20T14:37:19.839Z,36.02
2022-08-20T14:39:51.990Z,37.19
2022-08-20T14:42:18.949Z,37.30
2022-08-20T14:44:45.436Z,37.01
2022-08-20T14:47:25.991Z,37.13
2022-08-20T14:49:54.479Z,38.08
2022-08-20T14:52:22.752Z,36.89
2022-08-20T14:54:50.269Z,37.75
2022-08-20T14:57:19.266Z,37.10
2022-08-20T14:59:47.228Z,35.42
2022-08-20T15:02:16.357Z,35.40
2022-08-20T15:04:43.323Z,36.35
2022-08-20T15:07:27.834Z,37.13
2022-08-20T15:09:55.360Z,36.52
2022-08-20T15:12:22.700Z,37.37
2022-08-20T15:14:49.152Z,37.52
2022-08-20T15:17:21.553Z,37.59
2022-08-20T15:19:48.674Z,36.89
2022-08-20T15:22:15.660Z,34.51
2022-08-20T15:24:42.730Z,33.51
2022-08-20T15:27:22.770Z,33.46
2022-08-20T15:29:50.379Z,35.20
2022-08-20T15:32:17.557Z,36.06
2022-08-20T15:34:44.181Z,34.09
2022-08-20T15:37:22.451Z,36.40
2022-08-20T15:39:50.494Z,37.02
2022-08-20T15:42:18.200Z,36.84
2022-08-20T15:44:45.513Z,36.53
2022-08-20T15:47:34.656Z,37.10
2022-08-20T15:50:13.977Z,35.20
2022-08-20T15:52:44.660Z,32.60
2022-08-20T15:55:15.000Z,30.94
2022-08-20T15:57:53.145Z,29.98
2022-08-20T16:00:38.891Z,28.91
2022-08-20T16:03:11.183Z,28.25
2022-08-20T16:05:48.058Z,28.05
2022-08-20T16:08:42.454Z,27.66
2022-08-20T16:11:36.620Z,27.67
2022-08-20T16:14:15.889Z,27.54
2022-08-20T16:16:48.581Z,27.07
2022-08-20T16:19:22.961Z,26.15
2022-08-20T16:21:51.459Z,26.74
2022-08-20T16:24:19.894Z,26.87
2022-08-20T16:27:08.016Z,26.63
2022-08-20T16:29:55.113Z,26.15
2022-08-20T16:32:30.997Z,26.19
2022-08-20T16:34:59.932Z,26.23
2022-08-20T16:37:37.902Z,26.12
2022-08-20T16:40:07.350Z,25.84
2022-08-20T16:42:38.930Z,26.07
2022-08-20T16:45:11.663Z,25.80
2022-08-20T16:47:40.738Z,25.93
2022-08-20T16:50:16.723Z,25.78
2022-08-20T16:52:46.582Z,25.75
2022-08-20T16:55:14.250Z,25.44
2022-08-20T16:57:40.838Z,25.40
2022-08-20T17:00:20.254Z,25.37
2022-08-20T17:02:54.151Z,25.20
2022-08-20T17:05:22.325Z,25.27
2022-08-20T17:08:03.379Z,25.21
2022-08-20T17:10:40.447Z,25.08
2022-08-20T17:13:13.042Z,24.90
2022-08-20T17:15:43.582Z,24.90
2022-08-20T17:18:22.624Z,24.74
2022-08-20T17:20:49.585Z,24.78
2022-08-20T17:23:18.371Z,24.98
2022-08-20T17:26:15.985Z,24.78
2022-08-20T17:28:52.578Z,24.44
2022-08-20T17:31:45.772Z,24.59
2022-08-20T17:34:24.109Z,24.40
2022-08-20T17:37:10.909Z,24.12
2022-08-20T17:39:47.198Z,24.11
2022-08-20T17:42:25.818Z,23.97
2022-08-20T17:45:24.842Z,23.95
2022-08-20T17:47:52.658Z,23.81
2022-08-20T17:50:24.075Z,23.69
2022-08-20T17:52:55.203Z,23.69
2022-08-20T17:55:22.269Z,23.68
2022-08-20T17:57:54.563Z,23.50
2022-08-20T18:00:26.815Z,23.58
2022-08-20T18:02:58.648Z,23.50
2022-08-20T18:05:29.541Z,23.45
2022-08-20T18:08:11.287Z,23.24
2022-08-20T18:11:00.722Z,23.07
2022-08-20T18:14:00.546Z,23.08
2022-08-20T18:16:42.445Z,23.00
2022-08-20T18:19:17.441Z,22.98
2022-08-20T18:22:18.316Z,22.79
2022-08-20T18:24:53.386Z,22.80
2022-08-20T18:27:25.236Z,22.72
2022-08-20T18:29:59.148Z,22.73
2022-08-20T18:32:30.885Z,22.65
2022-08-20T18:35:35.729Z,22.49
2022-08-20T18:38:12.444Z,22.45
2022-08-20T18:40:39.551Z,22.22
2022-08-20T18:43:26.052Z,22.36
2022-08-20T18:45:52.703Z,22.12
2022-08-20T18:48:22.540Z,22.18
2022-08-20T18:50:55.529Z,22.09
2022-08-20T18:53:33.959Z,22.08
2022-08-20T18:56:13.572Z,21.92
2022-08-20T18:58:53.724Z,21.73
2022-08-20T19:01:20.323Z,21.63
2022-08-20T19:03:54.518Z,21.69
2022-08-20T19:06:33.384Z,21.57
2022-08-20T19:09:18.062Z,21.59
2022-08-20T19:12:02.914Z,21.44
2022-08-20T19:14:33.032Z,21.25
2022-08-20T19:17:06.184Z,21.12
2022-08-20T19:19:33.240Z,20.92
2022-08-20T19:22:02.165Z,20.75
2022-08-20T19:24:35.315Z,20.66
2022-08-20T19:27:08.419Z,20.57
2022-08-20T19:29:46.101Z,20.38
2022-08-20T19:32:21.353Z,20.31
2022-08-20T19:35:00.072Z,20.12
2022-08-20T19:37:39.867Z,19.88
2022-08-20T19:40:33.186Z,19.84
2022-08-20T19:43:11.282Z,19.71
2022-08-20T19:45:45.239Z,19.85
2022-08-20T19:48:49.914Z,19.92
2022-08-20T19:51:27.669Z,19.72
2022-08-20T19:53:54.587Z,19.75
2022-08-20T19:56:26.831Z,19.74
2022-08-20T19:59:00.425Z,19.70
2022-08-20T20:01:27.946Z,19.45
2022-08-20T20:04:15.379Z,19.25
2022-08-20T20:06:46.236Z,19.07
2022-08-20T20:09:26.126Z,19.10
2022-08-20T20:11:58.761Z,19.08
2022-08-20T20:14:34.135Z,18.90
2022-08-20T20:17:04.085Z,19.04
2022-08-20T20:19:30.679Z,19.15
2022-08-20T20:22:23.611Z,19.08
2022-08-20T20:25:13.262Z,19.01
2022-08-20T20:27:41.081Z,18.92
2022-08-20T20:30:12.193Z,18.82
2022-08-20T20:32:48.515Z,18.65
2022-08-20T20:35:36.701Z,18.42
2022-08-20T20:38:09.277Z,18.31
2022-08-20T20:40:55.120Z,18.12
2022-08-20T20:43:37.095Z,17.75
2022-08-20T20:46:18.562Z,17.59
2022-08-20T20:48:48.489Z,17.46
2022-08-20T20:51:38.569Z,17.28
2022-08-20T20:54:21.004Z,17.24
2022-08-20T20:57:06.784Z,17.22
2022-08-20T20:59:35.899Z,17.06
2022-08-20T21:02:03.136Z,17.00
2022-08-20T21:04:30.101Z,16.93
2022-08-20T21:06:58.935Z,16.88
2022-08-20T21:09:26.047Z,17.00
2022-08-20T21:11:52.524Z,16.93
2022-08-20T21:14:19.196Z,17.04
2022-08-20T21:16:46.099Z,16.55
2022-08-20T21:19:13.253Z,16.40
2022-08-20T21:21:43.750Z,16.58
2022-08-20T21:24:10.345Z,16.63
2022-08-20T21:26:37.840Z,16.74
2022-08-20T21:29:06.562Z,16.75
2022-08-20T21:31:36.148Z,16.61
2022-08-20T21:34:03.074Z,16.38
2022-08-20T21:36:29.577Z,16.37
2022-08-20T21:38:56.238Z,16.15
2022-08-20T21:41:29.942Z,16.30
2022-08-20T21:43:58.590Z,16.11
2022-08-20T21:46:28.406Z,16.10
2022-08-20T21:48:55.311Z,16.12
2022-08-20T21:51:21.733Z,16.23
2022-08-20T21:53:48.245Z,16.13
2022-08-20T21:56:14.709Z,16.04
2022-08-20T21:58:49.830Z,15.69
2022-08-20T22:01:17.351Z,15.38
2022-08-20T22:03:43.872Z,15.73
2022-08-20T22:06:15.959Z,15.81
2022-08-20T22:08:42.447Z,15.96
2022-08-20T22:11:10.808Z,15.81
2022-08-20T22:13:38.976Z,14.98
2022-08-20T22:16:07.653Z,14.86
2022-08-20T22:18:34.974Z,14.92
2022-08-20T22:21:02.561Z,15.29
2022-08-20T22:23:29.193Z,15.35
2022-08-20T22:25:55.703Z,15.36
2022-08-20T22:28:22.518Z,15.35
2022-08-20T22:30:49.072Z,15.33
2022-08-20T22:33:20.311Z,15.22
2022-08-20T22:35:49.908Z,15.14
2022-08-20T22:38:17.061Z,14.40
2022-08-20T22:40:44.476Z,14.61
2022-08-20T22:43:11.626Z,14.91
2022-08-20T22:45:39.467Z,15.00
2022-08-20T22:48:07.074Z,15.06
2022-08-20T22:50:33.778Z,14.97
2022-08-20T22:53:01.777Z,14.95
2022-08-20T22:55:28.230Z,14.85
2022-08-20T22:57:55.047Z,15.00
2022-08-20T23:00:24.123Z,15.03
2022-08-20T23:02:54.967Z,14.87
2022-08-20T23:05:24.275Z,14.63
2022-08-20T23:07:54.148Z,14.78
2022-08-20T23:10:21.938Z,14.72
2022-08-20T23:12:48.901Z,14.57
2022-08-20T23:15:15.457Z,14.68
2022-08-20T23:17:42.105Z,14.71
2022-08-20T23:20:10.888Z,14.74
2022-08-20T23:22:37.563Z,14.60
2022-08-20T23:25:06.444Z,14.29
2022-08-20T23:27:40.794Z,14.35
2022-08-20T23:30:07.915Z,14.66
2022-08-20T23:32:34.443Z,14.79
2022-08-20T23:35:00.936Z,14.75
2022-08-20T23:37:27.403Z,14.43
2022-08-20T23:39:53.915Z,14.39
2022-08-20T23:42:20.570Z,14.55
2022-08-20T23:44:47.054Z,14.63
2022-08-20T23:47:19.583Z,14.49
2022-08-20T23:49:46.625Z,14.16
2022-08-20T23:52:13.158Z,13.88
2022-08-20T23:54:39.869Z,14.29
2022-08-20T23:57:08.442Z,14.34
2022-08-20T23:59:35.723Z,14.16
